sensor_id;sensor_type;location;lat;lon;timestamp;temperature;humidity
68719;DHT22;55696;52.138;5.444;2022-12-16T00:01:26;3.60;74.00
68719;DHT22;55696;52.138;5.444;2022-12-16T00:03:55;3.60;75.20
68719;DHT22;55696;52.138;5.444;2022-12-16T00:06:29;3.50;75.50
68719;DHT22;55696;52.138;5.444;2022-12-16T00:08:56;3.40;74.90
68719;DHT22;55696;52.138;5.444;2022-12-16T00:11:23;3.40;74.20
68719;DHT22;55696;52.138;5.444;2022-12-16T00:13:50;3.40;74.60
68719;DHT22;55696;52.138;5.444;2022-12-16T00:16:19;3.30;74.60
68719;DHT22;55696;52.138;5.444;2022-12-16T00:18:46;3.20;75.80
68719;DHT22;55696;52.138;5.444;2022-12-16T00:21:13;3.20;75.00
68719;DHT22;55696;52.138;5.444;2022-12-16T00:23:40;3.20;74.80
68719;DHT22;55696;52.138;5.444;2022-12-16T00:26:08;3.20;75.10
68719;DHT22;55696;52.138;5.444;2022-12-16T00:28:35;3.20;75.20
68719;DHT22;55696;52.138;5.444;2022-12-16T00:31:02;3.10;75.00
68719;DHT22;55696;52.138;5.444;2022-12-16T00:33:30;2.90;74.90
68719;DHT22;55696;52.138;5.444;2022-12-16T00:35:57;3.00;75.20
68719;DHT22;55696;52.138;5.444;2022-12-16T00:38:25;3.00;75.30
68719;DHT22;55696;52.138;5.444;2022-12-16T00:40:52;3.00;76.00
68719;DHT22;55696;52.138;5.444;2022-12-16T00:43:19;3.00;75.10
68719;DHT22;55696;52.138;5.444;2022-12-16T00:45:47;3.00;75.20
68719;DHT22;55696;52.138;5.444;2022-12-16T00:48:14;2.90;76.80
68719;DHT22;55696;52.138;5.444;2022-12-16T00:50:47;2.90;75.40
68719;DHT22;55696;52.138;5.444;2022-12-16T00:53:18;2.90;76.90
68719;DHT22;55696;52.138;5.444;2022-12-16T00:55:45;3.00;75.40
68719;DHT22;55696;52.138;5.444;2022-12-16T00:58:12;2.90;75.10
68719;DHT22;55696;52.138;5.444;2022-12-16T01:00:39;2.90;75.50
68719;DHT22;55696;52.138;5.444;2022-12-16T01:03:06;3.00;75.20
68719;DHT22;55696;52.138;5.444;2022-12-16T01:05:33;3.00;75.10
68719;DHT22;55696;52.138;5.444;2022-12-16T01:08:01;2.90;74.90
68719;DHT22;55696;52.138;5.444;2022-12-16T01:10:28;3.00;75.00
68719;DHT22;55696;52.138;5.444;2022-12-16T01:12:54;3.10;74.90
68719;DHT22;55696;52.138;5.444;2022-12-16T01:15:21;3.10;74.80
68719;DHT22;55696;52.138;5.444;2022-12-16T01:17:48;3.10;74.90
68719;DHT22;55696;52.138;5.444;2022-12-16T01:20:15;3.10;75.10
68719;DHT22;55696;52.138;5.444;2022-12-16T01:22:42;4.00;75.60
68719;DHT22;55696;52.138;5.444;2022-12-16T01:25:10;3.20;75.10
68719;DHT22;55696;52.138;5.444;2022-12-16T01:27:38;3.20;76.20
68719;DHT22;55696;52.138;5.444;2022-12-16T01:30:05;3.20;75.30
68719;DHT22;55696;52.138;5.444;2022-12-16T01:32:32;3.30;75.40
68719;DHT22;55696;52.138;5.444;2022-12-16T01:34:59;3.40;75.10
68719;DHT22;55696;52.138;5.444;2022-12-16T01:37:26;3.50;75.00
68719;DHT22;55696;52.138;5.444;2022-12-16T01:39:53;3.50;74.80
68719;DHT22;55696;52.138;5.444;2022-12-16T01:42:21;3.60;74.80
68719;DHT22;55696;52.138;5.444;2022-12-16T01:44:49;3.60;75.40
68719;DHT22;55696;52.138;5.444;2022-12-16T01:47:26;3.60;75.70
68719;DHT22;55696;52.138;5.444;2022-12-16T01:50:10;3.70;76.50
68719;DHT22;55696;52.138;5.444;2022-12-16T01:52:45;3.70;77.10
68719;DHT22;55696;52.138;5.444;2022-12-16T01:55:18;3.70;76.50
68719;DHT22;55696;52.138;5.444;2022-12-16T01:57:57;3.70;77.00
68719;DHT22;55696;52.138;5.444;2022-12-16T02:00:25;3.70;76.80
68719;DHT22;55696;52.138;5.444;2022-12-16T02:02:52;3.80;74.90
68719;DHT22;55696;52.138;5.444;2022-12-16T02:05:19;3.80;75.20
68719;DHT22;55696;52.138;5.444;2022-12-16T02:08:13;3.90;74.90
68719;DHT22;55696;52.138;5.444;2022-12-16T02:16:23;4.10;76.40
68719;DHT22;55696;52.138;5.444;2022-12-16T02:29:31;4.20;74.30
68719;DHT22;55696;52.138;5.444;2022-12-16T02:32:19;4.20;75.20
68719;DHT22;55696;52.138;5.444;2022-12-16T02:37:55;6.20;77.70
68719;DHT22;55696;52.138;5.444;2022-12-16T02:40:30;4.20;76.90
68719;DHT22;55696;52.138;5.444;2022-12-16T02:43:34;4.20;76.80
68719;DHT22;55696;52.138;5.444;2022-12-16T02:45:55;4.20;77.10
68719;DHT22;55696;52.138;5.444;2022-12-16T02:48:23;4.20;75.00
68719;DHT22;55696;52.138;5.444;2022-12-16T02:50:51;4.20;74.90
68719;DHT22;55696;52.138;5.444;2022-12-16T02:53:18;4.30;75.90
68719;DHT22;55696;52.138;5.444;2022-12-16T03:01:46;4.40;77.00
68719;DHT22;55696;52.138;5.444;2022-12-16T03:07:05;4.40;76.80
68719;DHT22;55696;52.138;5.444;2022-12-16T03:09:36;4.30;77.00
68719;DHT22;55696;52.138;5.444;2022-12-16T03:12:08;4.40;76.50
68719;DHT22;55696;52.138;5.444;2022-12-16T03:14:38;4.50;77.00
68719;DHT22;55696;52.138;5.444;2022-12-16T03:17:07;4.50;76.90
68719;DHT22;55696;52.138;5.444;2022-12-16T03:19:36;4.50;76.50
68719;DHT22;55696;52.138;5.444;2022-12-16T03:22:08;4.60;76.90
68719;DHT22;55696;52.138;5.444;2022-12-16T03:24:37;4.70;77.60
68719;DHT22;55696;52.138;5.444;2022-12-16T03:27:13;4.70;76.10
68719;DHT22;55696;52.138;5.444;2022-12-16T03:30:08;4.70;75.20
68719;DHT22;55696;52.138;5.444;2022-12-16T03:32:45;4.80;77.40
68719;DHT22;55696;52.138;5.444;2022-12-16T03:38:09;4.70;77.60
68719;DHT22;55696;52.138;5.444;2022-12-16T03:40:39;4.70;77.50
68719;DHT22;55696;52.138;5.444;2022-12-16T03:43:09;4.80;77.10
68719;DHT22;55696;52.138;5.444;2022-12-16T03:45:40;4.80;77.60
68719;DHT22;55696;52.138;5.444;2022-12-16T03:48:09;4.80;77.60
68719;DHT22;55696;52.138;5.444;2022-12-16T03:50:37;4.80;77.10
68719;DHT22;55696;52.138;5.444;2022-12-16T03:53:05;4.80;77.20
68719;DHT22;55696;52.138;5.444;2022-12-16T03:55:33;4.80;77.10
68719;DHT22;55696;52.138;5.444;2022-12-16T03:57:59;4.80;76.50
68719;DHT22;55696;52.138;5.444;2022-12-16T04:00:26;4.90;76.30
68719;DHT22;55696;52.138;5.444;2022-12-16T04:02:53;4.90;76.20
68719;DHT22;55696;52.138;5.444;2022-12-16T04:05:20;4.90;76.10
68719;DHT22;55696;52.138;5.444;2022-12-16T04:07:47;4.90;76.10
68719;DHT22;55696;52.138;5.444;2022-12-16T04:10:14;4.90;76.40
68719;DHT22;55696;52.138;5.444;2022-12-16T04:12:41;4.90;76.60
68719;DHT22;55696;52.138;5.444;2022-12-16T04:15:26;4.90;76.10
68719;DHT22;55696;52.138;5.444;2022-12-16T04:18:17;4.80;76.20
68719;DHT22;55696;52.138;5.444;2022-12-16T04:21:03;4.80;78.30
68719;DHT22;55696;52.138;5.444;2022-12-16T04:23:51;4.80;76.60
68719;DHT22;55696;52.138;5.444;2022-12-16T04:26:39;4.90;78.20
68719;DHT22;55696;52.138;5.444;2022-12-16T04:29:24;4.90;76.20
68719;DHT22;55696;52.138;5.444;2022-12-16T04:31:51;4.80;76.60
68719;DHT22;55696;52.138;5.444;2022-12-16T04:34:19;4.90;77.20
68719;DHT22;55696;52.138;5.444;2022-12-16T04:37:02;4.90;77.40
68719;DHT22;55696;52.138;5.444;2022-12-16T04:39:48;4.90;77.10
68719;DHT22;55696;52.138;5.444;2022-12-16T04:42:33;4.90;76.00
68719;DHT22;55696;52.138;5.444;2022-12-16T04:45:19;4.90;76.00
68719;DHT22;55696;52.138;5.444;2022-12-16T04:48:04;4.80;76.00
68719;DHT22;55696;52.138;5.444;2022-12-16T04:50:49;4.80;76.40
68719;DHT22;55696;52.138;5.444;2022-12-16T04:53:34;4.90;77.10
68719;DHT22;55696;52.138;5.444;2022-12-16T04:56:21;4.80;76.50
68719;DHT22;55696;52.138;5.444;2022-12-16T04:59:07;4.80;76.10
68719;DHT22;55696;52.138;5.444;2022-12-16T05:01:52;4.90;76.10
68719;DHT22;55696;52.138;5.444;2022-12-16T05:04:38;4.90;76.20
68719;DHT22;55696;52.138;5.444;2022-12-16T05:07:23;4.90;76.10
68719;DHT22;55696;52.138;5.444;2022-12-16T05:10:09;4.80;76.20
68719;DHT22;55696;52.138;5.444;2022-12-16T05:12:54;4.80;76.30
68719;DHT22;55696;52.138;5.444;2022-12-16T05:15:40;4.80;76.70
68719;DHT22;55696;52.138;5.444;2022-12-16T05:18:26;4.70;76.20
68719;DHT22;55696;52.138;5.444;2022-12-16T05:21:11;4.70;76.30
68719;DHT22;55696;52.138;5.444;2022-12-16T05:23:56;4.70;76.60
68719;DHT22;55696;52.138;5.444;2022-12-16T05:26:42;4.60;76.60
68719;DHT22;55696;52.138;5.444;2022-12-16T05:29:27;4.70;76.80
68719;DHT22;55696;52.138;5.444;2022-12-16T05:32:13;4.60;76.80
68719;DHT22;55696;52.138;5.444;2022-12-16T05:34:58;4.60;77.20
68719;DHT22;55696;52.138;5.444;2022-12-16T05:37:44;4.50;77.00
68719;DHT22;55696;52.138;5.444;2022-12-16T05:40:29;4.30;76.50
68719;DHT22;55696;52.138;5.444;2022-12-16T05:43:14;4.30;76.90
68719;DHT22;55696;52.138;5.444;2022-12-16T05:46:00;4.20;76.90
68719;DHT22;55696;52.138;5.444;2022-12-16T05:48:46;4.20;77.00
68719;DHT22;55696;52.138;5.444;2022-12-16T05:51:31;4.10;76.80
68719;DHT22;55696;52.138;5.444;2022-12-16T05:54:17;4.10;76.90
68719;DHT22;55696;52.138;5.444;2022-12-16T05:57:02;4.00;76.90
68719;DHT22;55696;52.138;5.444;2022-12-16T05:59:48;3.90;77.30
68719;DHT22;55696;52.138;5.444;2022-12-16T06:02:39;3.80;77.30
68719;DHT22;55696;52.138;5.444;2022-12-16T06:05:25;3.80;77.40
68719;DHT22;55696;52.138;5.444;2022-12-16T06:08:10;3.80;77.20
68719;DHT22;55696;52.138;5.444;2022-12-16T06:10:56;3.70;77.20
68719;DHT22;55696;52.138;5.444;2022-12-16T06:13:41;3.60;77.40
68719;DHT22;55696;52.138;5.444;2022-12-16T06:16:26;3.60;77.80
68719;DHT22;55696;52.138;5.444;2022-12-16T06:19:12;3.50;77.50
68719;DHT22;55696;52.138;5.444;2022-12-16T06:21:57;3.50;77.60
68719;DHT22;55696;52.138;5.444;2022-12-16T06:24:42;3.40;77.70
68719;DHT22;55696;52.138;5.444;2022-12-16T06:27:28;3.40;77.70
68719;DHT22;55696;52.138;5.444;2022-12-16T06:30:21;3.40;77.60
68719;DHT22;55696;52.138;5.444;2022-12-16T06:33:07;3.40;77.70
68719;DHT22;55696;52.138;5.444;2022-12-16T06:35:52;3.30;77.60
68719;DHT22;55696;52.138;5.444;2022-12-16T06:38:37;3.30;77.90
68719;DHT22;55696;52.138;5.444;2022-12-16T06:41:23;3.30;77.90
68719;DHT22;55696;52.138;5.444;2022-12-16T06:44:08;3.30;77.70
68719;DHT22;55696;52.138;5.444;2022-12-16T06:46:54;3.30;77.70
68719;DHT22;55696;52.138;5.444;2022-12-16T06:49:39;3.30;77.80
68719;DHT22;55696;52.138;5.444;2022-12-16T06:52:25;3.20;77.60
68719;DHT22;55696;52.138;5.444;2022-12-16T06:55:10;3.20;77.70
68719;DHT22;55696;52.138;5.444;2022-12-16T06:57:57;3.20;77.80
68719;DHT22;55696;52.138;5.444;2022-12-16T07:00:43;3.10;79.20
68719;DHT22;55696;52.138;5.444;2022-12-16T07:03:28;3.20;78.30
68719;DHT22;55696;52.138;5.444;2022-12-16T07:06:14;3.20;77.90
68719;DHT22;55696;52.138;5.444;2022-12-16T07:08:59;3.20;78.00
68719;DHT22;55696;52.138;5.444;2022-12-16T07:11:45;3.10;77.80
68719;DHT22;55696;52.138;5.444;2022-12-16T07:14:31;3.20;77.60
68719;DHT22;55696;52.138;5.444;2022-12-16T07:17:16;3.10;77.50
68719;DHT22;55696;52.138;5.444;2022-12-16T07:20:02;3.00;77.30
68719;DHT22;55696;52.138;5.444;2022-12-16T07:22:47;2.90;78.10
68719;DHT22;55696;52.138;5.444;2022-12-16T07:25:44;2.90;77.50
68719;DHT22;55696;52.138;5.444;2022-12-16T07:28:30;2.90;77.50
68719;DHT22;55696;52.138;5.444;2022-12-16T07:31:15;2.90;77.60
68719;DHT22;55696;52.138;5.444;2022-12-16T07:34:01;2.90;77.50
68719;DHT22;55696;52.138;5.444;2022-12-16T07:36:46;3.00;77.60
68719;DHT22;55696;52.138;5.444;2022-12-16T07:39:32;3.10;77.50
68719;DHT22;55696;52.138;5.444;2022-12-16T07:42:21;3.10;77.50
68719;DHT22;55696;52.138;5.444;2022-12-16T07:45:07;3.30;78.30
68719;DHT22;55696;52.138;5.444;2022-12-16T07:47:53;3.30;78.10
68719;DHT22;55696;52.138;5.444;2022-12-16T07:50:39;3.30;77.50
68719;DHT22;55696;52.138;5.444;2022-12-16T07:53:24;3.30;77.50
68719;DHT22;55696;52.138;5.444;2022-12-16T07:56:10;3.30;77.30
68719;DHT22;55696;52.138;5.444;2022-12-16T07:58:56;3.30;77.40
68719;DHT22;55696;52.138;5.444;2022-12-16T08:01:41;3.20;77.20
68719;DHT22;55696;52.138;5.444;2022-12-16T08:04:27;3.20;77.10
68719;DHT22;55696;52.138;5.444;2022-12-16T08:07:12;3.20;76.80
68719;DHT22;55696;52.138;5.444;2022-12-16T08:09:58;3.10;77.00
68719;DHT22;55696;52.138;5.444;2022-12-16T08:12:43;3.20;77.00
68719;DHT22;55696;52.138;5.444;2022-12-16T08:15:28;3.20;76.80
68719;DHT22;55696;52.138;5.444;2022-12-16T08:18:13;3.20;77.00
68719;DHT22;55696;52.138;5.444;2022-12-16T08:20:59;3.20;76.80
68719;DHT22;55696;52.138;5.444;2022-12-16T08:23:44;3.30;76.70
68719;DHT22;55696;52.138;5.444;2022-12-16T08:26:30;3.40;76.90
68719;DHT22;55696;52.138;5.444;2022-12-16T08:29:16;3.60;77.00
68719;DHT22;55696;52.138;5.444;2022-12-16T08:32:11;3.60;76.60
68719;DHT22;55696;52.138;5.444;2022-12-16T08:34:56;3.70;77.10
68719;DHT22;55696;52.138;5.444;2022-12-16T08:37:42;4.00;76.30
68719;DHT22;55696;52.138;5.444;2022-12-16T08:40:27;4.10;76.30
68719;DHT22;55696;52.138;5.444;2022-12-16T08:43:13;4.20;75.90
68719;DHT22;55696;52.138;5.444;2022-12-16T08:45:59;4.20;76.20
68719;DHT22;55696;52.138;5.444;2022-12-16T08:48:45;4.30;75.70
68719;DHT22;55696;52.138;5.444;2022-12-16T08:51:30;4.30;75.90
68719;DHT22;55696;52.138;5.444;2022-12-16T08:54:16;4.40;75.60
68719;DHT22;55696;52.138;5.444;2022-12-16T08:57:01;4.40;75.50
68719;DHT22;55696;52.138;5.444;2022-12-16T08:59:47;4.40;75.70
68719;DHT22;55696;52.138;5.444;2022-12-16T09:02:32;4.40;75.40
68719;DHT22;55696;52.138;5.444;2022-12-16T09:05:21;4.40;75.40
68719;DHT22;55696;52.138;5.444;2022-12-16T09:08:06;4.50;75.70
68719;DHT22;55696;52.138;5.444;2022-12-16T09:10:52;4.60;75.60
68719;DHT22;55696;52.138;5.444;2022-12-16T09:13:37;4.60;76.20
68719;DHT22;55696;52.138;5.444;2022-12-16T09:16:22;4.70;75.00
68719;DHT22;55696;52.138;5.444;2022-12-16T09:19:09;4.80;75.00
68719;DHT22;55696;52.138;5.444;2022-12-16T09:21:54;4.70;75.90
68719;DHT22;55696;52.138;5.444;2022-12-16T09:24:40;4.70;75.00
68719;DHT22;55696;52.138;5.444;2022-12-16T09:27:25;4.90;74.70
68719;DHT22;55696;52.138;5.444;2022-12-16T09:30:11;4.90;74.40
68719;DHT22;55696;52.138;5.444;2022-12-16T09:32:56;4.90;74.90
68719;DHT22;55696;52.138;5.444;2022-12-16T09:35:41;5.00;74.50
68719;DHT22;55696;52.138;5.444;2022-12-16T09:38:27;5.00;74.50
68719;DHT22;55696;52.138;5.444;2022-12-16T09:50:23;5.10;76.40
68719;DHT22;55696;52.138;5.444;2022-12-16T09:53:12;5.00;76.40
68719;DHT22;55696;52.138;5.444;2022-12-16T09:55:59;5.20;76.10
68719;DHT22;55696;52.138;5.444;2022-12-16T09:58:52;5.10;76.90
68719;DHT22;55696;52.138;5.444;2022-12-16T10:01:40;5.30;76.40
68719;DHT22;55696;52.138;5.444;2022-12-16T10:04:26;5.30;75.40
68719;DHT22;55696;52.138;5.444;2022-12-16T10:07:21;5.30;74.20
68719;DHT22;55696;52.138;5.444;2022-12-16T10:10:45;5.40;76.60
68719;DHT22;55696;52.138;5.444;2022-12-16T10:14:04;5.50;76.30
68719;DHT22;55696;52.138;5.444;2022-12-16T10:17:11;5.50;77.40
68719;DHT22;55696;52.138;5.444;2022-12-16T10:20:13;5.80;76.20
68719;DHT22;55696;52.138;5.444;2022-12-16T10:23:14;5.90;75.00
68719;DHT22;55696;52.138;5.444;2022-12-16T10:26:25;5.90;75.20
68719;DHT22;55696;52.138;5.444;2022-12-16T10:29:17;6.00;75.80
68719;DHT22;55696;52.138;5.444;2022-12-16T10:35:20;6.10;74.70
68719;DHT22;55696;52.138;5.444;2022-12-16T10:38:17;6.30;74.10
68719;DHT22;55696;52.138;5.444;2022-12-16T10:41:05;6.30;74.20
68719;DHT22;55696;52.138;5.444;2022-12-16T10:43:51;6.40;73.00
68719;DHT22;55696;52.138;5.444;2022-12-16T10:46:39;6.40;73.00
68719;DHT22;55696;52.138;5.444;2022-12-16T10:49:24;6.50;72.60
68719;DHT22;55696;52.138;5.444;2022-12-16T10:52:13;6.50;71.30
68719;DHT22;55696;52.138;5.444;2022-12-16T10:58:54;6.60;73.60
68719;DHT22;55696;52.138;5.444;2022-12-16T11:01:41;6.60;73.90
68719;DHT22;55696;52.138;5.444;2022-12-16T11:04:39;6.50;71.60
68719;DHT22;55696;52.138;5.444;2022-12-16T11:16:27;6.70;73.40
68719;DHT22;55696;52.138;5.444;2022-12-16T11:19:30;6.70;72.90
68719;DHT22;55696;52.138;5.444;2022-12-16T11:22:22;6.70;73.50
68719;DHT22;55696;52.138;5.444;2022-12-16T11:25:19;6.70;73.50
68719;DHT22;55696;52.138;5.444;2022-12-16T11:28:10;6.70;73.30
68719;DHT22;55696;52.138;5.444;2022-12-16T11:30:58;6.70;73.70
68719;DHT22;55696;52.138;5.444;2022-12-16T11:33:44;6.70;73.20
68719;DHT22;55696;52.138;5.444;2022-12-16T11:36:31;6.70;72.30
68719;DHT22;55696;52.138;5.444;2022-12-16T11:39:20;6.80;72.80
68719;DHT22;55696;52.138;5.444;2022-12-16T11:42:11;6.80;72.80
68719;DHT22;55696;52.138;5.444;2022-12-16T11:45:00;6.70;73.30
68719;DHT22;55696;52.138;5.444;2022-12-16T11:47:54;6.60;73.00
68719;DHT22;55696;52.138;5.444;2022-12-16T11:50:52;6.70;74.00
68719;DHT22;55696;52.138;5.444;2022-12-16T11:54:34;6.70;74.30
68719;DHT22;55696;52.138;5.444;2022-12-16T11:57:01;6.70;73.70
68719;DHT22;55696;52.138;5.444;2022-12-16T12:00:00;6.80;73.30
68719;DHT22;55696;52.138;5.444;2022-12-16T12:03:10;6.80;74.20
68719;DHT22;55696;52.138;5.444;2022-12-16T12:09:22;6.80;74.00
68719;DHT22;55696;52.138;5.444;2022-12-16T12:12:51;6.80;74.20
68719;DHT22;55696;52.138;5.444;2022-12-16T12:15:38;6.90;73.40
68719;DHT22;55696;52.138;5.444;2022-12-16T12:18:37;6.80;73.90
68719;DHT22;55696;52.138;5.444;2022-12-16T12:21:26;6.80;71.10
68719;DHT22;55696;52.138;5.444;2022-12-16T12:24:26;6.80;72.90
68719;DHT22;55696;52.138;5.444;2022-12-16T12:27:37;6.80;74.00
68719;DHT22;55696;52.138;5.444;2022-12-16T12:30:26;6.80;73.90
68719;DHT22;55696;52.138;5.444;2022-12-16T12:33:33;6.90;72.10
68719;DHT22;55696;52.138;5.444;2022-12-16T12:36:37;6.90;74.20
68719;DHT22;55696;52.138;5.444;2022-12-16T12:39:45;7.00;73.40
68719;DHT22;55696;52.138;5.444;2022-12-16T12:42:49;7.00;74.20
68719;DHT22;55696;52.138;5.444;2022-12-16T12:48:57;6.90;73.20
68719;DHT22;55696;52.138;5.444;2022-12-16T12:54:51;6.80;73.20
68719;DHT22;55696;52.138;5.444;2022-12-16T12:57:40;6.90;73.80
68719;DHT22;55696;52.138;5.444;2022-12-16T13:00:31;6.80;73.20
68719;DHT22;55696;52.138;5.444;2022-12-16T13:03:36;6.80;73.60
68719;DHT22;55696;52.138;5.444;2022-12-16T13:06:24;6.80;73.60
68719;DHT22;55696;52.138;5.444;2022-12-16T13:15:07;6.90;71.40
68719;DHT22;55696;52.138;5.444;2022-12-16T13:20:53;6.90;73.60
68719;DHT22;55696;52.138;5.444;2022-12-16T13:23:43;7.30;72.50
68719;DHT22;55696;52.138;5.444;2022-12-16T13:26:32;6.80;72.90
68719;DHT22;55696;52.138;5.444;2022-12-16T13:29:25;6.90;73.40
68719;DHT22;55696;52.138;5.444;2022-12-16T13:38:05;6.90;73.30
68719;DHT22;55696;52.138;5.444;2022-12-16T13:41:06;6.90;74.60
68719;DHT22;55696;52.138;5.444;2022-12-16T13:44:10;8.10;74.00
68719;DHT22;55696;52.138;5.444;2022-12-16T13:46:56;6.90;72.80
68719;DHT22;55696;52.138;5.444;2022-12-16T13:49:46;6.90;72.70
68719;DHT22;55696;52.138;5.444;2022-12-16T13:52:45;6.90;72.70
68719;DHT22;55696;52.138;5.444;2022-12-16T13:55:39;6.80;74.30
68719;DHT22;55696;52.138;5.444;2022-12-16T13:58:39;6.90;74.10
68719;DHT22;55696;52.138;5.444;2022-12-16T14:04:35;6.90;74.10
68719;DHT22;55696;52.138;5.444;2022-12-16T14:07:24;6.90;73.50
68719;DHT22;55696;52.138;5.444;2022-12-16T14:10:34;6.90;73.60
68719;DHT22;55696;52.138;5.444;2022-12-16T14:16:57;6.80;74.40
68719;DHT22;55696;52.138;5.444;2022-12-16T14:26:10;6.60;74.80
68719;DHT22;55696;52.138;5.444;2022-12-16T14:28:57;6.70;74.70
68719;DHT22;55696;52.138;5.444;2022-12-16T14:31:43;6.70;72.90
68719;DHT22;55696;52.138;5.444;2022-12-16T14:34:32;6.60;72.90
68719;DHT22;55696;52.138;5.444;2022-12-16T14:37:37;6.50;74.40
68719;DHT22;55696;52.138;5.444;2022-12-16T14:40:31;6.50;72.80
68719;DHT22;55696;52.138;5.444;2022-12-16T14:43:18;6.50;75.30
68719;DHT22;55696;52.138;5.444;2022-12-16T14:46:04;6.50;73.20
68719;DHT22;55696;52.138;5.444;2022-12-16T14:48:51;6.40;74.10
68719;DHT22;55696;52.138;5.444;2022-12-16T14:51:36;6.50;74.50
68719;DHT22;55696;52.138;5.444;2022-12-16T14:54:40;6.50;73.50
68719;DHT22;55696;52.138;5.444;2022-12-16T14:57:28;6.50;75.40
68719;DHT22;55696;52.138;5.444;2022-12-16T15:00:20;6.40;74.80
68719;DHT22;55696;52.138;5.444;2022-12-16T15:03:24;6.40;75.40
68719;DHT22;55696;52.138;5.444;2022-12-16T15:06:27;6.40;75.90
68719;DHT22;55696;52.138;5.444;2022-12-16T15:09:27;6.40;75.00
68719;DHT22;55696;52.138;5.444;2022-12-16T15:12:15;6.30;75.20
68719;DHT22;55696;52.138;5.444;2022-12-16T15:15:05;6.30;74.80
68719;DHT22;55696;52.138;5.444;2022-12-16T15:17:56;6.20;75.00
68719;DHT22;55696;52.138;5.444;2022-12-16T15:20:50;6.20;75.10
68719;DHT22;55696;52.138;5.444;2022-12-16T15:23:39;6.10;75.50
68719;DHT22;55696;52.138;5.444;2022-12-16T15:26:28;6.10;75.50
68719;DHT22;55696;52.138;5.444;2022-12-16T15:29:35;6.00;75.20
68719;DHT22;55696;52.138;5.444;2022-12-16T15:35:11;6.00;75.60
68719;DHT22;55696;52.138;5.444;2022-12-16T15:38:30;5.90;75.60
68719;DHT22;55696;52.138;5.444;2022-12-16T15:41:30;6.00;76.70
68719;DHT22;55696;52.138;5.444;2022-12-16T15:44:17;5.80;76.40
68719;DHT22;55696;52.138;5.444;2022-12-16T15:47:04;5.80;75.50
68719;DHT22;55696;52.138;5.444;2022-12-16T15:49:57;5.80;75.20
68719;DHT22;55696;52.138;5.444;2022-12-16T15:52:46;5.70;74.20
68719;DHT22;55696;52.138;5.444;2022-12-16T15:55:39;5.70;73.90
68719;DHT22;55696;52.138;5.444;2022-12-16T15:58:35;5.70;76.50
68719;DHT22;55696;52.138;5.444;2022-12-16T16:01:24;5.70;76.20
68719;DHT22;55696;52.138;5.444;2022-12-16T16:07:16;5.60;76.50
68719;DHT22;55696;52.138;5.444;2022-12-16T16:10:17;5.60;76.50
68719;DHT22;55696;52.138;5.444;2022-12-16T16:13:03;5.60;76.10
68719;DHT22;55696;52.138;5.444;2022-12-16T16:15:48;5.50;74.50
68719;DHT22;55696;52.138;5.444;2022-12-16T16:18:34;5.50;74.60
68719;DHT22;55696;52.138;5.444;2022-12-16T16:21:19;5.50;74.60
68719;DHT22;55696;52.138;5.444;2022-12-16T16:24:05;5.50;74.60
68719;DHT22;55696;52.138;5.444;2022-12-16T16:26:54;5.40;74.60
68719;DHT22;55696;52.138;5.444;2022-12-16T16:29:39;5.70;75.70
68719;DHT22;55696;52.138;5.444;2022-12-16T16:32:25;5.40;74.50
68719;DHT22;55696;52.138;5.444;2022-12-16T16:35:10;5.40;74.50
68719;DHT22;55696;52.138;5.444;2022-12-16T16:37:56;5.40;74.40
68719;DHT22;55696;52.138;5.444;2022-12-16T16:40:45;5.30;74.40
68719;DHT22;55696;52.138;5.444;2022-12-16T16:43:30;5.40;75.40
68719;DHT22;55696;52.138;5.444;2022-12-16T16:46:37;5.40;74.80
68719;DHT22;55696;52.138;5.444;2022-12-16T16:49:28;5.40;77.20
68719;DHT22;55696;52.138;5.444;2022-12-16T16:52:16;5.50;75.60
68719;DHT22;55696;52.138;5.444;2022-12-16T16:55:02;5.60;76.10
68719;DHT22;55696;52.138;5.444;2022-12-16T16:57:47;5.60;75.30
68719;DHT22;55696;52.138;5.444;2022-12-16T17:00:33;5.60;74.90
68719;DHT22;55696;52.138;5.444;2022-12-16T17:03:19;5.60;75.40
68719;DHT22;55696;52.138;5.444;2022-12-16T17:06:05;5.70;74.80
68719;DHT22;55696;52.138;5.444;2022-12-16T17:08:51;5.70;74.70
68719;DHT22;55696;52.138;5.444;2022-12-16T17:11:37;5.70;74.30
68719;DHT22;55696;52.138;5.444;2022-12-16T17:14:22;5.80;75.90
68719;DHT22;55696;52.138;5.444;2022-12-16T17:17:08;5.70;74.30
68719;DHT22;55696;52.138;5.444;2022-12-16T17:19:54;5.80;75.10
68719;DHT22;55696;52.138;5.444;2022-12-16T17:22:39;6.30;74.40
68719;DHT22;55696;52.138;5.444;2022-12-16T17:25:24;5.90;73.70
68719;DHT22;55696;52.138;5.444;2022-12-16T17:28:10;5.90;73.70
68719;DHT22;55696;52.138;5.444;2022-12-16T17:30:56;5.80;74.30
68719;DHT22;55696;52.138;5.444;2022-12-16T17:33:41;5.70;73.60
68719;DHT22;55696;52.138;5.444;2022-12-16T17:36:27;5.70;74.00
68719;DHT22;55696;52.138;5.444;2022-12-16T17:39:12;5.50;74.20
68719;DHT22;55696;52.138;5.444;2022-12-16T17:41:58;5.50;74.20
68719;DHT22;55696;52.138;5.444;2022-12-16T17:44:43;5.60;74.70
68719;DHT22;55696;52.138;5.444;2022-12-16T17:47:29;5.40;74.40
68719;DHT22;55696;52.138;5.444;2022-12-16T17:50:14;5.50;74.80
68719;DHT22;55696;52.138;5.444;2022-12-16T17:52:59;5.50;74.90
68719;DHT22;55696;52.138;5.444;2022-12-16T17:55:45;5.40;74.60
68719;DHT22;55696;52.138;5.444;2022-12-16T17:58:33;5.40;74.70
68719;DHT22;55696;52.138;5.444;2022-12-16T18:01:19;5.40;76.00
68719;DHT22;55696;52.138;5.444;2022-12-16T18:04:05;5.50;75.10
68719;DHT22;55696;52.138;5.444;2022-12-16T18:06:51;5.50;74.90
68719;DHT22;55696;52.138;5.444;2022-12-16T18:09:36;5.50;73.80
68719;DHT22;55696;52.138;5.444;2022-12-16T18:12:22;5.60;74.20
68719;DHT22;55696;52.138;5.444;2022-12-16T18:15:08;5.70;74.70
68719;DHT22;55696;52.138;5.444;2022-12-16T18:17:53;5.90;74.20
68719;DHT22;55696;52.138;5.444;2022-12-16T18:20:38;6.00;73.60
68719;DHT22;55696;52.138;5.444;2022-12-16T18:23:28;5.90;73.30
68719;DHT22;55696;52.138;5.444;2022-12-16T18:26:14;5.90;75.60
68719;DHT22;55696;52.138;5.444;2022-12-16T18:28:59;5.90;73.70
68719;DHT22;55696;52.138;5.444;2022-12-16T18:31:47;5.80;73.40
68719;DHT22;55696;52.138;5.444;2022-12-16T18:34:32;5.90;75.00
68719;DHT22;55696;52.138;5.444;2022-12-16T18:37:18;5.80;73.30
68719;DHT22;55696;52.138;5.444;2022-12-16T18:40:04;5.80;73.30
68719;DHT22;55696;52.138;5.444;2022-12-16T18:42:49;5.90;74.10
68719;DHT22;55696;52.138;5.444;2022-12-16T18:45:35;5.90;73.20
68719;DHT22;55696;52.138;5.444;2022-12-16T18:48:20;5.80;72.90
68719;DHT22;55696;52.138;5.444;2022-12-16T18:51:06;5.60;73.10
68719;DHT22;55696;52.138;5.444;2022-12-16T18:53:52;5.60;74.50
68719;DHT22;55696;52.138;5.444;2022-12-16T18:56:37;5.60;73.60
68719;DHT22;55696;52.138;5.444;2022-12-16T18:59:23;5.60;73.50
68719;DHT22;55696;52.138;5.444;2022-12-16T19:02:08;5.60;73.50
68719;DHT22;55696;52.138;5.444;2022-12-16T19:04:54;5.70;74.00
68719;DHT22;55696;52.138;5.444;2022-12-16T19:07:39;5.80;73.70
68719;DHT22;55696;52.138;5.444;2022-12-16T19:10:24;5.90;73.30
68719;DHT22;55696;52.138;5.444;2022-12-16T19:13:13;5.90;73.00
68719;DHT22;55696;52.138;5.444;2022-12-16T19:16:03;6.00;75.20